createdAt,value
2018-06-29T00:00:59.689Z,95510.2
2018-06-29T00:02:02.182Z,95511.3
2018-06-29T00:03:04.063Z,95515.5
2018-06-29T00:04:05.976Z,95517
2018-06-29T00:05:08.591Z,95522
2018-06-29T00:06:11.039Z,95522.8
2018-06-29T00:07:13.339Z,95525.1
2018-06-29T00:08:15.497Z,95523.6
2018-06-29T00:09:17.670Z,95520.8
2018-06-29T00:10:20.159Z,95522.3
2018-06-29T00:11:22.321Z,95516.7
2018-06-29T00:12:24.498Z,95519.2
2018-06-29T00:13:26.403Z,95523.6
2018-06-29T00:14:28.859Z,95522.9
2018-06-29T00:15:31.042Z,95522
2018-06-29T00:16:33.468Z,95527.8
2018-06-29T00:17:35.705Z,95525.6
2018-06-29T00:18:37.911Z,95523.5
2018-06-29T00:19:40.563Z,95526.6
2018-06-29T00:20:42.736Z,95525.4
2018-06-29T00:21:45.051Z,95527.8
2018-06-29T00:22:46.974Z,95524.3
2018-06-29T00:23:49.128Z,95524.6
2018-06-29T00:24:51.628Z,95522.1
2018-06-29T00:25:54.092Z,95524.5
2018-06-29T00:26:56.542Z,95522.4
2018-06-29T00:27:58.450Z,95522.7
2018-06-29T00:29:00.892Z,95522.9
2018-06-29T00:30:03.055Z,95527
2018-06-29T00:31:05.253Z,95525
2018-06-29T00:32:07.175Z,95517.8
2018-06-29T00:33:09.361Z,95513.8
2018-06-29T00:34:10.710Z,95512.2
2018-06-29T00:35:12.625Z,95511.5
2018-06-29T00:36:14.800Z,95502
2018-06-29T00:37:17.248Z,95502.9
2018-06-29T00:38:19.152Z,95504.6
2018-06-29T00:39:21.609Z,95498.6
2018-06-29T00:40:24.129Z,95495
2018-06-29T00:41:26.044Z,95497.3
2018-06-29T00:42:28.509Z,95498.3
2018-06-29T00:43:30.687Z,95503.8
2018-06-29T00:44:33.133Z,95503.6
2018-06-29T00:45:35.288Z,95508.8
2018-06-29T00:46:37.754Z,95510.4
2018-06-29T00:47:39.646Z,95510.1
2018-06-29T00:48:42.090Z,95516.3
2018-06-29T00:49:44.259Z,95514.5
2018-06-29T00:50:46.796Z,95513.4
2018-06-29T00:51:48.973Z,95503.2
2018-06-29T00:52:51.157Z,95507.8
2018-06-29T00:53:53.090Z,95499.1
2018-06-29T00:54:55.536Z,95504
2018-06-29T00:55:57.712Z,95504
2018-06-29T00:56:59.899Z,95503.9
2018-06-29T00:58:02.079Z,95500.4
2018-06-29T00:59:04.247Z,95499.8
2018-06-29T01:00:06.130Z,95499.8
2018-06-29T01:01:08.049Z,95504.4
2018-06-29T01:02:10.495Z,95501.4
2018-06-29T01:03:12.401Z,95495.4
2018-06-29T01:04:14.593Z,95491.2
2018-06-29T01:05:16.783Z,95488.6
2018-06-29T01:06:19.227Z,95490.7
2018-06-29T01:07:21.389Z,95489.8
2018-06-29T01:08:23.568Z,95491.8
2018-06-29T01:09:26.018Z,95489.6
2018-06-29T01:10:28.199Z,95495.7
2018-06-29T01:11:30.652Z,95494.8
2018-06-29T01:12:33.113Z,95498.7
2018-06-29T01:13:35.555Z,95509.6
2018-06-29T01:14:38.054Z,95505.2
2018-06-29T01:15:39.963Z,95508.1
2018-06-29T01:16:42.160Z,95508.8
2018-06-29T01:17:44.612Z,95511.3
2018-06-29T01:18:47.057Z,95509.9
2018-06-29T01:19:48.969Z,95507.5
2018-06-29T01:20:51.423Z,95509.7
2018-06-29T01:21:53.884Z,95503.9
2018-06-29T01:22:56.059Z,95505
2018-06-29T01:23:58.258Z,95501.2
2018-06-29T01:25:00.140Z,95503.2
2018-06-29T01:26:02.288Z,95504.7
2018-06-29T01:27:04.464Z,95506.3
2018-06-29T01:28:06.647Z,95497.5
2018-06-29T01:29:08.824Z,95499.8
2018-06-29T01:30:11.004Z,95503.3
2018-06-29T01:31:13.457Z,95495.3
2018-06-29T01:32:15.918Z,95496.3
2018-06-29T01:33:18.380Z,95497.8
2018-06-29T01:34:20.817Z,95494.5
2018-06-29T01:35:22.712Z,95493.2
2018-06-29T01:36:24.924Z,95494.5
2018-06-29T01:37:27.123Z,95490.2
2018-06-29T01:38:29.323Z,95489.4
2018-06-29T01:39:31.529Z,95489.8
2018-06-29T01:40:33.974Z,95495.8
2018-06-29T01:41:35.330Z,95495.5
2018-06-29T01:42:37.779Z,95497.6
2018-06-29T01:43:39.968Z,95495.8
2018-06-29T01:44:42.135Z,95500.1
2018-06-29T01:45:44.012Z,95503.8
2018-06-29T01:46:46.189Z,95499.8
2018-06-29T01:47:48.640Z,95496.9
2018-06-29T01:48:50.825Z,95497.2
2018-06-29T01:49:53.271Z,95494.3
2018-06-29T01:50:55.711Z,95491.6
2018-06-29T01:51:58.174Z,95488.3
2018-06-29T01:53:00.342Z,95485.5
2018-06-29T01:54:02.584Z,95483
2018-06-29T01:55:05.035Z,95485.3
2018-06-29T01:56:07.492Z,95482
2018-06-29T01:57:09.943Z,95483.9
2018-06-29T01:58:12.100Z,95484
2018-06-29T01:59:14.289Z,95484.9
2018-06-29T02:00:16.763Z,95484.9
2018-06-29T02:01:18.905Z,95484.4
2018-06-29T02:02:21.081Z,95484
2018-06-29T02:03:23.531Z,95483.6
2018-06-29T02:04:25.457Z,95484.1
2018-06-29T02:05:27.911Z,95485.8
2018-06-29T02:06:30.095Z,95479.9
2018-06-29T02:07:32.557Z,95478.6
2018-06-29T02:08:34.733Z,95477.8
2018-06-29T02:09:36.643Z,95479.4
2018-06-29T02:10:39.105Z,95481.2
2018-06-29T02:11:40.977Z,95475.7
2018-06-29T02:12:43.150Z,95477.6
2018-06-29T02:13:45.318Z,95477.1
2018-06-29T02:14:47.499Z,95478.8
2018-06-29T02:15:49.957Z,95480.3
2018-06-29T02:16:52.412Z,95475.3
2018-06-29T02:17:54.596Z,95480.9
2018-06-29T02:18:57.092Z,95478.3
2018-06-29T02:19:58.992Z,95480.6
2018-06-29T02:21:01.460Z,95479.4
2018-06-29T02:22:03.641Z,95478.6
2018-06-29T02:23:06.090Z,95477.3
2018-06-29T02:24:08.272Z,95481.8
2018-06-29T02:25:10.481Z,95478.8
2018-06-29T02:26:12.944Z,95477.1
2018-06-29T02:27:15.132Z,95479.9
2018-06-29T02:28:16.770Z,95475.7
2018-06-29T02:29:18.909Z,95477.6
2018-06-29T02:30:20.648Z,95479.3
2018-06-29T02:31:23.149Z,95477.8
2018-06-29T02:32:25.612Z,95482.2
2018-06-29T02:33:28.060Z,95481.1
2018-06-29T02:34:30.239Z,95484.4
2018-06-29T02:35:32.142Z,95480.9
2018-06-29T02:36:34.062Z,95479.3
2018-06-29T02:37:35.404Z,95476.6
2018-06-29T02:38:37.579Z,95478
2018-06-29T02:39:39.742Z,95474.5
2018-06-29T02:40:41.619Z,95478.6
2018-06-29T02:41:42.985Z,95476.3
2018-06-29T02:42:45.140Z,95476.2
2018-06-29T02:43:47.321Z,95479.8
2018-06-29T02:44:49.778Z,95475.5
2018-06-29T02:45:51.955Z,95474.9
2018-06-29T02:46:54.405Z,95475.5
2018-06-29T02:47:56.908Z,95475.9
2018-06-29T02:48:59.073Z,95476.5
2018-06-29T02:50:01.536Z,95473.4
2018-06-29T02:51:04.013Z,95466.3
2018-06-29T02:52:05.915Z,95469.7
2018-06-29T02:53:07.840Z,95469.8
2018-06-29T02:54:10.035Z,95463.5
2018-06-29T02:55:12.214Z,95464.7
2018-06-29T02:56:14.658Z,95460.9
2018-06-29T02:57:16.812Z,95460.9
2018-06-29T02:58:19.006Z,95457.8
2018-06-29T02:59:21.459Z,95452.4
2018-06-29T03:00:23.629Z,95452
2018-06-29T03:01:25.817Z,95455.9
2018-06-29T03:02:28.282Z,95453.1
2018-06-29T03:03:30.455Z,95454.9
2018-06-29T03:04:32.655Z,95458.5
2018-06-29T03:05:35.109Z,95460.9
2018-06-29T03:06:37.292Z,95459.7
2018-06-29T03:07:39.766Z,95463.4
2018-06-29T03:08:42.201Z,95460.9
2018-06-29T03:09:44.640Z,95460.6
2018-06-29T03:10:47.090Z,95458.6
2018-06-29T03:11:49.532Z,95459.6
2018-06-29T03:12:51.979Z,95458.1
2018-06-29T03:13:54.159Z,95457.8
2018-06-29T03:14:56.343Z,95459.2
2018-06-29T03:15:58.793Z,95457.8
2018-06-29T03:17:01.269Z,95456.2
2018-06-29T03:18:03.452Z,95456.1
2018-06-29T03:19:05.634Z,95456.1
2018-06-29T03:20:08.075Z,95458.1
2018-06-29T03:21:10.520Z,95461.4
2018-06-29T03:22:12.981Z,95460.8
2018-06-29T03:23:15.165Z,95458.3
2018-06-29T03:24:17.351Z,95460.5
2018-06-29T03:25:20.281Z,95459.7
2018-06-29T03:26:22.939Z,95462.1
2018-06-29T03:27:25.129Z,95463.6
2018-06-29T03:28:27.590Z,95456.2
2018-06-29T03:29:30.051Z,95460.1
2018-06-29T03:30:32.231Z,95460.7
2018-06-29T03:31:34.686Z,95459.4
2018-06-29T03:32:36.838Z,95455.9
2018-06-29T03:33:38.999Z,95458.7
2018-06-29T03:34:40.911Z,95457.6
2018-06-29T03:35:43.376Z,95458.5
2018-06-29T03:36:45.285Z,95457.2
2018-06-29T03:37:47.153Z,95463.5
2018-06-29T03:38:49.599Z,95460.5
2018-06-29T03:39:52.059Z,95461.4
2018-06-29T03:40:54.240Z,95460.7
2018-06-29T03:41:56.395Z,95456
2018-06-29T03:42:58.880Z,95457.7
2018-06-29T03:44:00.484Z,95457.3
2018-06-29T03:45:02.924Z,95458.3
2018-06-29T03:46:05.375Z,95460.6
2018-06-29T03:47:07.552Z,95457.2
2018-06-29T03:48:09.162Z,95458
2018-06-29T03:49:11.616Z,95461
2018-06-29T03:50:13.793Z,95462.2
2018-06-29T03:51:15.693Z,95456.1
2018-06-29T03:52:18.168Z,95456.4
2018-06-29T03:53:20.613Z,95459
2018-06-29T03:54:22.776Z,95459.4
2018-06-29T03:55:24.976Z,95458.3
2018-06-29T03:56:27.149Z,95460
2018-06-29T03:57:29.048Z,95458.8
2018-06-29T03:58:31.228Z,95459.4
2018-06-29T03:59:33.146Z,95462.5
2018-06-29T04:00:35.591Z,95460
2018-06-29T04:01:37.264Z,95460.4
2018-06-29T04:02:39.444Z,95462.2
2018-06-29T04:03:41.905Z,95461.7
2018-06-29T04:04:43.799Z,95462.8
2018-06-29T04:05:45.970Z,95458.3
2018-06-29T04:06:48.122Z,95461.8
2018-06-29T04:07:50.290Z,95460
2018-06-29T04:08:52.476Z,95458.4
2018-06-29T04:09:54.924Z,95456.3
2018-06-29T04:10:57.372Z,95461
2018-06-29T04:11:59.546Z,95456.5
2018-06-29T04:13:02.366Z,95455.6
2018-06-29T04:14:04.704Z,95454
2018-06-29T04:15:06.871Z,95449.3
2018-06-29T04:16:09.316Z,95448.9
2018-06-29T04:17:10.952Z,95451.3
2018-06-29T04:18:13.133Z,95445.6
2018-06-29T04:19:15.592Z,95448.2
2018-06-29T04:20:17.765Z,95440.8
2018-06-29T04:21:19.942Z,95440.8
2018-06-29T04:22:22.380Z,95442.7
2018-06-29T04:23:24.555Z,95437.6
2018-06-29T04:24:27.025Z,95440
2018-06-29T04:25:29.198Z,95439.8
2018-06-29T04:26:31.839Z,95436.6
2018-06-29T04:27:33.708Z,95438.9
2018-06-29T04:28:35.886Z,95445.6
2018-06-29T04:29:38.061Z,95443.9
2018-06-29T04:30:40.513Z,95445.9
2018-06-29T04:31:42.682Z,95449
2018-06-29T04:32:44.666Z,95452.8
2018-06-29T04:33:46.549Z,95454.5
2018-06-29T04:34:48.459Z,95456.9
2018-06-29T04:35:50.641Z,95455.4
2018-06-29T04:36:52.280Z,95455.8
2018-06-29T04:37:54.471Z,95454.4
2018-06-29T04:38:56.932Z,95455.6
2018-06-29T04:39:59.368Z,95456.3
2018-06-29T04:41:01.277Z,95453.8
2018-06-29T04:42:03.742Z,95455.7
2018-06-29T04:43:05.915Z,95451.1
2018-06-29T04:44:08.368Z,95453.5
2018-06-29T04:45:10.812Z,95451.4
2018-06-29T04:46:13.284Z,95451.2
2018-06-29T04:47:15.460Z,95455.5
2018-06-29T04:48:17.899Z,95449.6
2018-06-29T04:49:20.325Z,95454.9
2018-06-29T04:50:22.896Z,95452
2018-06-29T04:51:25.076Z,95454.5
2018-06-29T04:52:27.536Z,95453
2018-06-29T04:53:29.722Z,95455.4
2018-06-29T04:54:31.889Z,95451.2
2018-06-29T04:55:34.084Z,95454.7
2018-06-29T04:56:35.822Z,95455.8
2018-06-29T04:57:38.074Z,95455.4
2018-06-29T04:58:40.280Z,95455.3
2018-06-29T04:59:42.775Z,95452
2018-06-29T05:00:44.971Z,95453.4
2018-06-29T05:01:47.154Z,95453
2018-06-29T05:02:49.342Z,95450.3
2018-06-29T05:03:51.540Z,95456.8
2018-06-29T05:04:53.974Z,95453.1
2018-06-29T05:05:55.877Z,95455.6
2018-06-29T05:06:57.763Z,95452.4
2018-06-29T05:08:00.228Z,95450.6
2018-06-29T05:09:02.678Z,95453.5
2018-06-29T05:10:04.876Z,95452.1
2018-06-29T05:11:06.775Z,95456.7
2018-06-29T05:12:08.958Z,95457.3
2018-06-29T05:13:11.408Z,95460.9
2018-06-29T05:14:13.318Z,95460.9
2018-06-29T05:15:15.496Z,95458.3
2018-06-29T05:16:17.639Z,95458.9
2018-06-29T05:17:20.097Z,95459.6
2018-06-29T05:18:22.548Z,95458.3
2018-06-29T05:19:24.151Z,95458.4
2018-06-29T05:20:26.326Z,95460.1
2018-06-29T05:21:28.508Z,95458.8
2018-06-29T05:22:30.959Z,95460.7
2018-06-29T05:23:33.407Z,95459.3
2018-06-29T05:24:35.028Z,95458
2018-06-29T05:25:37.481Z,95462.2
2018-06-29T05:26:39.392Z,95460.9
2018-06-29T05:27:41.831Z,95463.2
2018-06-29T05:28:44.379Z,95459.6
2018-06-29T05:29:46.846Z,95462
2018-06-29T05:30:49.331Z,95463.7
2018-06-29T05:31:51.520Z,95464.1
2018-06-29T05:32:53.706Z,95459.1
2018-06-29T05:33:55.860Z,95458.9
2018-06-29T05:34:57.718Z,95459.1
2018-06-29T05:36:00.115Z,95457.8
2018-06-29T05:37:01.682Z,95456.8
2018-06-29T05:38:03.302Z,95459.1
2018-06-29T05:39:05.222Z,95454.4
2018-06-29T05:40:07.404Z,95458.1
2018-06-29T05:41:09.320Z,95455.8
2018-06-29T05:42:11.518Z,95459.3
2018-06-29T05:43:14.027Z,95457.8
2018-06-29T05:44:16.485Z,95459
2018-06-29T05:45:18.658Z,95459.6
2018-06-29T05:46:21.422Z,95459.6
2018-06-29T05:47:23.837Z,95458.3
2018-06-29T05:48:25.749Z,95458.4
2018-06-29T05:49:28.201Z,95458.8
2018-06-29T05:50:30.664Z,95459.3
2018-06-29T05:51:32.834Z,95457.1
2018-06-29T05:52:35.300Z,95465.1
2018-06-29T05:53:37.213Z,95461.9
2018-06-29T05:54:39.654Z,95460.5
2018-06-29T05:55:42.098Z,95459.4
2018-06-29T05:56:44.538Z,95461.4
2018-06-29T05:57:46.169Z,95463.2
2018-06-29T05:58:48.058Z,95461.8
2018-06-29T05:59:49.666Z,95464.7
2018-06-29T06:00:52.121Z,95464.1
2018-06-29T06:01:54.648Z,95463.9
2018-06-29T06:02:56.825Z,95467.8
2018-06-29T06:03:59.280Z,95459.3
2018-06-29T06:05:01.460Z,95458.1
2018-06-29T06:06:03.350Z,95461
2018-06-29T06:07:05.794Z,95459.5
2018-06-29T06:08:07.666Z,95461.2
2018-06-29T06:09:10.113Z,95463.7
2018-06-29T06:10:12.567Z,95459.1
2018-06-29T06:11:15.242Z,95461.7
2018-06-29T06:12:17.473Z,95461.6
2018-06-29T06:13:19.675Z,95466.1
2018-06-29T06:14:22.125Z,95462.4
2018-06-29T06:15:24.318Z,95464.8
2018-06-29T06:16:26.265Z,95468.2
2018-06-29T06:17:28.704Z,95465.4
2018-06-29T06:18:31.172Z,95466
2018-06-29T06:19:33.622Z,95468.5
2018-06-29T06:20:35.529Z,95467.1
2018-06-29T06:21:37.989Z,95464
2018-06-29T06:22:40.439Z,95468.5
2018-06-29T06:23:42.885Z,95465.2
2018-06-29T06:24:44.807Z,95466.7
2018-06-29T06:25:46.701Z,95456.6
2018-06-29T06:26:49.180Z,95456
2018-06-29T06:27:51.354Z,95456.2
2018-06-29T06:28:53.273Z,95456.8
2018-06-29T06:29:55.745Z,95456.2
2018-06-29T06:30:58.205Z,95460.6
2018-06-29T06:32:00.673Z,95461.4
2018-06-29T06:33:02.973Z,95458.2
2018-06-29T06:34:05.434Z,95459.1
2018-06-29T06:35:07.359Z,95455.8
2018-06-29T06:36:09.814Z,95458.1
2018-06-29T06:37:11.995Z,95458.8
2018-06-29T06:38:14.171Z,95457.9
2018-06-29T06:39:16.350Z,95457
2018-06-29T06:40:18.533Z,95458.3
2018-06-29T06:41:20.708Z,95458.9
2018-06-29T06:42:23.157Z,95460.9
2018-06-29T06:43:25.608Z,95464.2
2018-06-29T06:44:27.536Z,95465.1
2018-06-29T06:45:30.016Z,95464.3
2018-06-29T06:46:32.199Z,95464.3
2018-06-29T06:47:34.345Z,95468.3
2018-06-29T06:48:36.272Z,95471.1
2018-06-29T06:49:38.459Z,95467.5
2018-06-29T06:50:40.894Z,95468.1
2018-06-29T06:51:43.080Z,95472.7
2018-06-29T06:52:45.545Z,95478.3
2018-06-29T06:53:47.998Z,95472.1
2018-06-29T06:54:50.179Z,95475.3
2018-06-29T06:55:52.640Z,95477
2018-06-29T06:56:54.832Z,95476.8
2018-06-29T06:57:57.294Z,95479.3
2018-06-29T06:58:59.750Z,95482.1
2018-06-29T07:00:01.953Z,95484.1
2018-06-29T07:01:04.406Z,95486.2
2018-06-29T07:02:06.858Z,95484.2
2018-06-29T07:03:09.057Z,95489.6
2018-06-29T07:04:11.492Z,95489.6
2018-06-29T07:05:13.939Z,95486.5
2018-06-29T07:06:16.122Z,95489.8
2018-06-29T07:07:18.309Z,95491.8
2018-06-29T07:08:20.766Z,95489.5
2018-06-29T07:09:23.220Z,95490.1
2018-06-29T07:10:25.651Z,95487.5
2018-06-29T07:11:28.110Z,95485.4
2018-06-29T07:12:30.880Z,95486.3
2018-06-29T07:13:33.439Z,95487.5
2018-06-29T07:14:35.607Z,95489.9
2018-06-29T07:15:37.796Z,95489.3
2018-06-29T07:16:40.236Z,95482.4
2018-06-29T07:17:42.704Z,95486.4
2018-06-29T07:18:44.865Z,95485.9
2018-06-29T07:19:47.044Z,95479.6
2018-06-29T07:20:48.937Z,95478.3
2018-06-29T07:21:51.393Z,95482.4
2018-06-29T07:22:53.855Z,95487.4
2018-06-29T07:23:56.065Z,95488.8
2018-06-29T07:24:58.608Z,95486.3
2018-06-29T07:26:00.847Z,95485.5
2018-06-29T07:27:02.774Z,95492
2018-06-29T07:28:04.661Z,95497.8
2018-06-29T07:29:06.836Z,95497.4
2018-06-29T07:30:09.064Z,95496.5
2018-06-29T07:31:11.240Z,95495.8
2018-06-29T07:32:13.695Z,95495.2
2018-06-29T07:33:15.891Z,95499.7
2018-06-29T07:34:18.740Z,95493.6
2018-06-29T07:35:21.418Z,95495.7
2018-06-29T07:36:24.050Z,95494.2
2018-06-29T07:37:26.581Z,95495.1
2018-06-29T07:38:29.146Z,95491.5
2018-06-29T07:39:31.696Z,95487
2018-06-29T07:40:34.180Z,95476.9
2018-06-29T07:41:36.680Z,95473.7
2018-06-29T07:42:39.137Z,95476.6
2018-06-29T07:43:41.598Z,95473.5
2018-06-29T07:44:43.792Z,95481.9
2018-06-29T07:45:46.265Z,95488.3
2018-06-29T07:46:48.709Z,95487.4
2018-06-29T07:47:50.919Z,95493.6
2018-06-29T07:48:53.130Z,95490
2018-06-29T07:49:55.030Z,95488.8
2018-06-29T07:50:57.511Z,95492.7
2018-06-29T07:51:59.726Z,95491.6
2018-06-29T07:53:01.661Z,95494
2018-06-29T07:54:04.117Z,95492.9
2018-06-29T07:55:06.573Z,95494.7
2018-06-29T07:56:09.178Z,95494.6
2018-06-29T07:57:11.694Z,95501
2018-06-29T07:58:14.277Z,95500.1
2018-06-29T07:59:16.980Z,95496.5
2018-06-29T08:00:19.156Z,95495.1
2018-06-29T08:01:20.527Z,95493.5
2018-06-29T08:02:22.725Z,95496.5
2018-06-29T08:03:24.359Z,95494.7
2018-06-29T08:04:26.817Z,95502.1
2018-06-29T08:05:28.992Z,95500
2018-06-29T08:06:31.183Z,95501.8
2018-06-29T08:07:33.091Z,95500.8
2018-06-29T08:08:34.993Z,95496.5
2018-06-29T08:09:37.449Z,95495.1
2018-06-29T08:10:39.463Z,95489
2018-06-29T08:11:42.058Z,95493.2
2018-06-29T08:12:44.247Z,95489.2
2018-06-29T08:13:46.426Z,95486.8
2018-06-29T08:14:48.586Z,95496.2
2018-06-29T08:15:51.029Z,95492.4
2018-06-29T08:16:53.656Z,95494.5
2018-06-29T08:17:55.725Z,95495.2
2018-06-29T08:18:58.184Z,95494.2
2018-06-29T08:20:00.084Z,95495.2
2018-06-29T08:21:02.535Z,95491.9
2018-06-29T08:22:04.994Z,95493.9
2018-06-29T08:23:07.450Z,95490.4
2018-06-29T08:24:09.623Z,95489.5
2018-06-29T08:25:11.804Z,95488.2
2018-06-29T08:26:13.982Z,95496.5
2018-06-29T08:27:15.860Z,95495.3
2018-06-29T08:28:18.327Z,95493.6
2018-06-29T08:29:20.225Z,95493.2
2018-06-29T08:30:22.400Z,95493.3
2018-06-29T08:31:24.582Z,95490.8
2018-06-29T08:32:26.506Z,95493.3
2018-06-29T08:33:28.680Z,95494.1
2018-06-29T08:34:30.858Z,95493.4
2018-06-29T08:35:33.358Z,95492
2018-06-29T08:36:35.820Z,95492.6
2018-06-29T08:37:38.273Z,95492.6
2018-06-29T08:38:41.051Z,95495.5
2018-06-29T08:39:43.410Z,95490.2
2018-06-29T08:40:45.863Z,95490
2018-06-29T08:41:48.306Z,95495.4
2018-06-29T08:42:50.758Z,95497.4
2018-06-29T08:43:53.197Z,95494.9
2018-06-29T08:44:55.369Z,95491.5
2018-06-29T08:45:57.822Z,95494.1
2018-06-29T08:47:00.098Z,95493.2
2018-06-29T08:48:02.588Z,95496.9
2018-06-29T08:49:04.782Z,95499.8
2018-06-29T08:50:06.934Z,95496.5
2018-06-29T08:51:08.549Z,95494.4
2018-06-29T08:52:10.902Z,95493.5
2018-06-29T08:53:13.583Z,95496.2
2018-06-29T08:54:16.041Z,95495.1
2018-06-29T08:55:17.955Z,95495.8
2018-06-29T08:56:20.151Z,95496.7
2018-06-29T08:57:22.299Z,95498.5
2018-06-29T08:58:24.482Z,95498.5
2018-06-29T08:59:26.936Z,95495.4
2018-06-29T09:00:29.389Z,95494.8
2018-06-29T09:01:31.557Z,95494.9
2018-06-29T09:02:33.710Z,95497.5
2018-06-29T09:03:36.181Z,95495.6
2018-06-29T09:04:38.629Z,95496.1
2018-06-29T09:05:40.804Z,95492.4
2018-06-29T09:06:43.000Z,95490.5
2018-06-29T09:07:45.198Z,95491.3
2018-06-29T09:08:47.626Z,95493.5
2018-06-29T09:09:50.115Z,95494.2
2018-06-29T09:10:52.104Z,95491.6
2018-06-29T09:11:53.971Z,95495.9
2018-06-29T09:12:56.148Z,95493.1
2018-06-29T09:13:58.318Z,95489.5
2018-06-29T09:15:00.777Z,95489.5
2018-06-29T09:16:02.677Z,95488.6
2018-06-29T09:17:05.122Z,95489
2018-06-29T09:18:07.571Z,95490.9
2018-06-29T09:19:09.953Z,95493.1
2018-06-29T09:20:12.614Z,95493.4
2018-06-29T09:21:15.057Z,95491.2
2018-06-29T09:22:16.934Z,95492.1
2018-06-29T09:23:19.115Z,95493.1
2018-06-29T09:24:21.676Z,95489.3
2018-06-29T09:25:23.713Z,95489.7
2018-06-29T09:26:26.155Z,95490.1
2018-06-29T09:27:28.327Z,95492.5
2018-06-29T09:28:30.513Z,95491.2
2018-06-29T09:29:32.960Z,95496.9
2018-06-29T09:30:35.405Z,95499.2
2018-06-29T09:31:37.858Z,95491.4
2018-06-29T09:32:39.773Z,95493.5
2018-06-29T09:33:42.242Z,95497
2018-06-29T09:34:44.418Z,95492.4
2018-06-29T09:35:46.589Z,95492.7
2018-06-29T09:36:48.771Z,95488.6
2018-06-29T09:37:50.678Z,95493
2018-06-29T09:38:52.854Z,95489
2018-06-29T09:39:55.321Z,95487.7
2018-06-29T09:40:57.493Z,95491.4
2018-06-29T09:41:59.959Z,95489
2018-06-29T09:43:02.130Z,95491.8
2018-06-29T09:44:04.595Z,95488
2018-06-29T09:45:07.059Z,95492.3
2018-06-29T09:46:09.513Z,95495
2018-06-29T09:47:11.973Z,95491.5
2018-06-29T09:48:14.713Z,95490.9
2018-06-29T09:49:16.889Z,95485.8
2018-06-29T09:50:19.338Z,95489.6
2018-06-29T09:51:21.515Z,95491.5
2018-06-29T09:52:23.966Z,95493.5
2018-06-29T09:53:26.422Z,95492.5
2018-06-29T09:54:28.873Z,95493.7
2018-06-29T09:55:31.339Z,95494.3
2018-06-29T09:56:33.777Z,95493.5
2018-06-29T09:57:36.238Z,95491.7
2018-06-29T09:58:37.867Z,95491.4
2018-06-29T09:59:40.348Z,95493.3
2018-06-29T10:00:42.768Z,95496.5
2018-06-29T10:01:45.036Z,95499.4
2018-06-29T10:02:47.235Z,95496.8
2018-06-29T10:03:49.431Z,95498.4
2018-06-29T10:04:51.597Z,95498.2
2018-06-29T10:05:54.061Z,95494.1
2018-06-29T10:06:56.257Z,95495.6
2018-06-29T10:07:58.718Z,95492
2018-06-29T10:09:00.958Z,95490.4
2018-06-29T10:10:03.151Z,95491.2
2018-06-29T10:11:05.601Z,95498.5
2018-06-29T10:12:08.057Z,95497.6
2018-06-29T10:13:10.264Z,95498.3
2018-06-29T10:14:12.457Z,95500.8
2018-06-29T10:15:14.087Z,95501.1
2018-06-29T10:16:16.531Z,95499
2018-06-29T10:17:18.674Z,95501.5
2018-06-29T10:18:20.818Z,95499.6
2018-06-29T10:19:22.443Z,95499
2018-06-29T10:20:24.595Z,95500.5
2018-06-29T10:21:26.769Z,95499.8
2018-06-29T10:22:29.194Z,95496.8
2018-06-29T10:23:30.902Z,95494.5
2018-06-29T10:24:33.070Z,95491.9
2018-06-29T10:25:34.926Z,95492.1
2018-06-29T10:26:37.483Z,95496.7
2018-06-29T10:27:39.931Z,95495.6
2018-06-29T10:28:42.084Z,95492.6
2018-06-29T10:29:44.544Z,95489.2
2018-06-29T10:30:46.897Z,95490.7
2018-06-29T10:31:48.762Z,95488.5
2018-06-29T10:32:50.937Z,95495.8
2018-06-29T10:33:53.119Z,95495.9
2018-06-29T10:34:55.287Z,95490.8
2018-06-29T10:35:57.950Z,95492.6
2018-06-29T10:37:00.469Z,95492.1
2018-06-29T10:38:02.348Z,95489.7
2018-06-29T10:39:04.529Z,95490.8
2018-06-29T10:40:06.728Z,95487.9
2018-06-29T10:41:09.171Z,95483.1
2018-06-29T10:42:11.358Z,95486.4
2018-06-29T10:43:13.540Z,95486.2
2018-06-29T10:44:15.458Z,95490.8
2018-06-29T10:45:17.610Z,95489.7
2018-06-29T10:46:20.101Z,95490.7
2018-06-29T10:47:22.539Z,95493.3
2018-06-29T10:48:24.709Z,95494.2
2018-06-29T10:49:26.607Z,95491.3
2018-06-29T10:50:28.769Z,95494.8
2018-06-29T10:51:31.210Z,95500
2018-06-29T10:52:33.670Z,95500.3
2018-06-29T10:53:36.132Z,95499.3
2018-06-29T10:54:38.303Z,95502.6
2018-06-29T10:55:40.462Z,95502.6
2018-06-29T10:56:42.343Z,95503.4
2018-06-29T10:57:44.804Z,95504.9
2018-06-29T10:58:47.255Z,95503.7
2018-06-29T10:59:49.146Z,95499
2018-06-29T11:00:51.314Z,95500.3
2018-06-29T11:01:52.690Z,95500.7
2018-06-29T11:02:54.890Z,95497.7
2018-06-29T11:03:57.074Z,95500.6
2018-06-29T11:04:59.537Z,95503.8
2018-06-29T11:06:01.485Z,95503.2
2018-06-29T11:07:03.930Z,95499.5
2018-06-29T11:08:06.409Z,95499.3
2018-06-29T11:09:08.555Z,95501.2
2018-06-29T11:10:10.722Z,95497.5
2018-06-29T11:11:12.894Z,95495.3
2018-06-29T11:12:15.344Z,95500
2018-06-29T11:13:17.250Z,95496.6
2018-06-29T11:14:19.716Z,95493.8
2018-06-29T11:15:21.604Z,95493.4
2018-06-29T11:16:23.789Z,95496.2
2018-06-29T11:17:26.252Z,95488.6
2018-06-29T11:18:28.439Z,95486.8
2018-06-29T11:19:30.591Z,95480.1
2018-06-29T11:20:32.485Z,95476
2018-06-29T11:21:34.966Z,95480.7
2018-06-29T11:22:37.357Z,95478.6
2018-06-29T11:23:39.614Z,95471.7
2018-06-29T11:24:41.504Z,95474.7
2018-06-29T11:25:43.682Z,95479.8
2018-06-29T11:26:45.607Z,95472.3
2018-06-29T11:27:47.786Z,95475.8
2018-06-29T11:28:49.940Z,95474.3
2018-06-29T11:29:52.389Z,95474.2
2018-06-29T11:30:54.571Z,95472.2
2018-06-29T11:31:57.018Z,95472.9
2018-06-29T11:32:59.465Z,95470.9
2018-06-29T11:34:01.923Z,95471.6
2018-06-29T11:35:04.376Z,95477
2018-06-29T11:36:06.260Z,95484.4
2018-06-29T11:37:08.439Z,95486.2
2018-06-29T11:38:10.905Z,95487.5
2018-06-29T11:39:13.127Z,95481.9
2018-06-29T11:40:15.578Z,95482.3
2018-06-29T11:41:18.018Z,95483.2
2018-06-29T11:42:20.485Z,95484.7
2018-06-29T11:43:22.931Z,95483.8
2018-06-29T11:44:25.124Z,95479.3
2018-06-29T11:45:27.586Z,95481.5
2018-06-29T11:46:30.053Z,95477
2018-06-29T11:47:32.505Z,95477.3
2018-06-29T11:48:34.797Z,95474.2
2018-06-29T11:49:36.766Z,95472.6
2018-06-29T11:50:38.644Z,95472.4
2018-06-29T11:51:40.856Z,95474.8
2018-06-29T11:52:43.300Z,95472.2
2018-06-29T11:53:45.505Z,95473.1
2018-06-29T11:54:47.950Z,95475.5
2018-06-29T11:55:50.449Z,95471.9
2018-06-29T11:56:52.609Z,95468.3
2018-06-29T11:57:55.070Z,95471.7
2018-06-29T11:58:57.250Z,95472.2
2018-06-29T11:59:59.458Z,95472.2
2018-06-29T12:01:01.632Z,95470.1
2018-06-29T12:02:03.817Z,95472.8
2018-06-29T12:03:06.282Z,95471.4
2018-06-29T12:04:08.468Z,95469.1
2018-06-29T12:05:10.920Z,95473.2
2018-06-29T12:06:13.110Z,95468.6
2018-06-29T12:07:14.904Z,95472.4
2018-06-29T12:08:17.490Z,95470.4
2018-06-29T12:09:19.639Z,95470.2
2018-06-29T12:10:21.521Z,95468.9
2018-06-29T12:11:23.216Z,95464.3
2018-06-29T12:12:25.677Z,95465.9
2018-06-29T12:13:27.866Z,95464.5
2018-06-29T12:14:30.306Z,95462.8
2018-06-29T12:15:32.759Z,95462.2
2018-06-29T12:16:34.650Z,95455.8
2018-06-29T12:17:36.822Z,95458.3
2018-06-29T12:18:38.696Z,95457.5
2018-06-29T12:19:41.128Z,95457
2018-06-29T12:20:43.848Z,95453.8
2018-06-29T12:21:46.624Z,95452.7
2018-06-29T12:22:48.274Z,95457.5
2018-06-29T12:23:50.722Z,95453.1
2018-06-29T12:24:52.871Z,95455
2018-06-29T12:25:54.800Z,95457.3
2018-06-29T12:26:56.698Z,95464.3
2018-06-29T12:27:59.277Z,95462.4
2018-06-29T12:29:01.482Z,95462.5
2018-06-29T12:30:03.988Z,95463.5
2018-06-29T12:31:06.463Z,95465.3
2018-06-29T12:32:08.912Z,95465
2018-06-29T12:33:11.087Z,95466.2
2018-06-29T12:34:13.533Z,95470.4
2018-06-29T12:35:15.718Z,95467.7
2018-06-29T12:36:18.173Z,95470.6
2018-06-29T12:37:20.616Z,95471.7